createdAt,value
2022-11-07T00:01:43.627Z,9.68
2022-11-07T00:03:48.885Z,9.69
2022-11-07T00:05:55.048Z,9.72
2022-11-07T00:07:59.830Z,9.71
2022-11-07T00:10:04.537Z,9.71
2022-11-07T00:12:09.904Z,9.67
2022-11-07T00:14:14.744Z,9.61
2022-11-07T00:16:22.748Z,9.61
2022-11-07T00:18:27.615Z,9.61
2022-11-07T00:20:32.400Z,9.63
2022-11-07T00:22:37.137Z,9.66
2022-11-07T00:24:41.986Z,9.70
2022-11-07T00:26:47.097Z,9.71
2022-11-07T00:28:51.744Z,9.72
2022-11-07T00:30:56.690Z,9.75
2022-11-07T00:33:04.074Z,9.78
2022-11-07T00:35:09.293Z,9.82
2022-11-07T00:37:13.782Z,9.82
2022-11-07T00:39:18.878Z,9.85
2022-11-07T00:41:24.363Z,9.89
2022-11-07T00:43:30.009Z,9.91
2022-11-07T00:45:34.772Z,9.95
2022-11-07T00:47:39.518Z,9.97
2022-11-07T00:49:46.910Z,9.93
2022-11-07T00:51:51.666Z,9.94
2022-11-07T00:53:56.540Z,9.96
2022-11-07T00:56:03.839Z,9.96
2022-11-07T00:58:12.634Z,10.00
2022-11-07T01:00:19.134Z,10.00
2022-11-07T01:02:23.873Z,9.96
2022-11-07T01:04:41.132Z,9.98
2022-11-07T01:06:46.974Z,10.01
2022-11-07T01:08:51.861Z,10.02
2022-11-07T01:10:56.671Z,10.03
2022-11-07T01:13:01.425Z,10.06
2022-11-07T01:15:07.097Z,10.07
2022-11-07T01:17:12.034Z,10.10
2022-11-07T01:19:17.132Z,10.11
2022-11-07T01:21:22.397Z,10.14
2022-11-07T01:23:29.565Z,10.08
2022-11-07T01:25:34.309Z,10.09
2022-11-07T01:27:39.079Z,10.10
2022-11-07T01:29:43.907Z,10.10
2022-11-07T01:31:49.088Z,10.10
2022-11-07T01:33:53.621Z,10.09
2022-11-07T01:36:06.030Z,10.03
2022-11-07T01:38:11.375Z,10.09
2022-11-07T01:40:18.858Z,10.15
2022-11-07T01:42:24.863Z,10.19
2022-11-07T01:44:53.209Z,10.23
2022-11-07T01:47:01.946Z,10.27
2022-11-07T01:49:12.396Z,10.27
2022-11-07T01:51:19.378Z,10.26
2022-11-07T01:53:24.236Z,10.26
2022-11-07T01:55:35.014Z,10.30
2022-11-07T01:57:43.748Z,10.30
2022-11-07T01:59:49.408Z,10.30
2022-11-07T02:01:54.310Z,10.33
2022-11-07T02:04:01.390Z,10.35
2022-11-07T02:06:11.770Z,10.37
2022-11-07T02:08:18.079Z,10.40
2022-11-07T02:10:23.779Z,10.42
2022-11-07T02:12:31.639Z,10.44
2022-11-07T02:14:36.460Z,10.48
2022-11-07T02:16:41.308Z,10.48
2022-11-07T02:18:48.112Z,10.46
2022-11-07T02:20:55.101Z,10.46
2022-11-07T02:23:02.815Z,10.48
2022-11-07T02:25:12.993Z,10.50
2022-11-07T02:27:22.623Z,10.52
2022-11-07T02:29:29.697Z,10.54
2022-11-07T02:31:34.516Z,10.56
2022-11-07T02:33:39.239Z,10.54
2022-11-07T02:35:45.561Z,10.57
2022-11-07T02:37:50.315Z,10.59
2022-11-07T02:39:55.181Z,10.59
2022-11-07T02:42:05.483Z,10.60
2022-11-07T02:44:14.002Z,10.61
2022-11-07T02:46:19.382Z,10.61
2022-11-07T02:48:24.403Z,10.59
2022-11-07T02:50:29.629Z,10.57
2022-11-07T02:52:34.104Z,10.54
2022-11-07T02:54:38.856Z,10.53
2022-11-07T02:56:43.696Z,10.54
2022-11-07T02:58:52.540Z,10.56
2022-11-07T03:01:02.948Z,10.56
2022-11-07T03:03:07.719Z,10.53
2022-11-07T03:05:12.879Z,10.52
2022-11-07T03:07:17.783Z,10.53
2022-11-07T03:09:22.624Z,10.56
2022-11-07T03:11:27.375Z,10.58
2022-11-07T03:13:32.255Z,10.56
2022-11-07T03:15:39.589Z,10.60
2022-11-07T03:17:44.893Z,10.63
2022-11-07T03:19:49.413Z,10.64
2022-11-07T03:21:54.460Z,10.70
2022-11-07T03:23:59.175Z,10.74
2022-11-07T03:26:04.035Z,10.75
2022-11-07T03:28:08.820Z,10.78
2022-11-07T03:30:14.791Z,10.80
2022-11-07T03:32:22.839Z,10.84
2022-11-07T03:34:27.658Z,10.86
2022-11-07T03:36:34.145Z,10.89
2022-11-07T03:38:38.944Z,10.92
2022-11-07T03:40:43.670Z,10.95
2022-11-07T03:42:48.908Z,10.99
2022-11-07T03:44:53.763Z,11.02
2022-11-07T03:46:58.574Z,11.04
2022-11-07T03:49:05.995Z,11.05
2022-11-07T03:51:12.209Z,11.05
2022-11-07T03:53:22.161Z,11.09
2022-11-07T03:55:29.786Z,11.12
2022-11-07T03:57:34.699Z,11.14
2022-11-07T03:59:39.677Z,11.16
2022-11-07T04:01:45.124Z,11.17
2022-11-07T04:03:52.743Z,11.19
2022-11-07T04:06:03.328Z,11.21
2022-11-07T04:08:08.329Z,11.22
2022-11-07T04:10:13.562Z,11.23
2022-11-07T04:12:30.806Z,11.26
2022-11-07T04:14:47.955Z,11.25
2022-11-07T04:17:05.170Z,11.25
2022-11-07T04:19:09.901Z,11.26
2022-11-07T04:21:17.549Z,11.26
2022-11-07T04:23:22.355Z,11.26
2022-11-07T04:25:39.307Z,11.23
2022-11-07T04:27:47.075Z,11.22
2022-11-07T04:29:51.813Z,11.18
2022-11-07T04:31:56.590Z,11.15
2022-11-07T04:34:01.367Z,11.08
2022-11-07T04:36:06.384Z,10.99
2022-11-07T04:38:13.749Z,10.88
2022-11-07T04:40:20.261Z,10.82
2022-11-07T04:42:25.006Z,10.73
2022-11-07T04:44:29.751Z,10.65
2022-11-07T04:46:34.499Z,10.57
2022-11-07T04:48:39.251Z,10.52
2022-11-07T04:50:44.844Z,10.50
2022-11-07T04:52:50.319Z,10.49
2022-11-07T04:54:57.710Z,10.46
2022-11-07T04:57:02.455Z,10.43
2022-11-07T04:59:07.255Z,10.46
2022-11-07T05:01:12.096Z,10.52
2022-11-07T05:03:17.337Z,10.54
2022-11-07T05:05:22.794Z,10.53
2022-11-07T05:07:27.298Z,10.50
2022-11-07T05:09:32.247Z,10.49
2022-11-07T05:11:39.685Z,10.48
2022-11-07T05:13:44.556Z,10.46
2022-11-07T05:15:49.762Z,10.50
2022-11-07T05:17:54.867Z,10.50
2022-11-07T05:19:59.672Z,10.49
2022-11-07T05:22:16.848Z,10.50
2022-11-07T05:24:21.601Z,10.54
2022-11-07T05:26:26.349Z,10.57
2022-11-07T05:28:39.044Z,10.60
2022-11-07T05:30:45.519Z,10.60
2022-11-07T05:32:50.278Z,10.60
2022-11-07T05:34:54.992Z,10.58
2022-11-07T05:36:59.760Z,10.56
2022-11-07T05:39:05.012Z,10.57
2022-11-07T05:41:09.523Z,10.53
2022-11-07T05:43:17.122Z,10.54
2022-11-07T05:45:24.664Z,10.56
2022-11-07T05:47:29.456Z,10.54
2022-11-07T05:49:34.373Z,10.52
2022-11-07T05:51:39.139Z,10.48
2022-11-07T05:53:43.875Z,10.47
2022-11-07T05:55:48.656Z,10.43
2022-11-07T05:57:54.272Z,10.42
2022-11-07T05:59:58.995Z,10.43
2022-11-07T06:02:06.586Z,10.38
2022-11-07T06:04:11.388Z,10.33
2022-11-07T06:06:16.186Z,10.35
2022-11-07T06:08:21.030Z,10.37
2022-11-07T06:10:26.476Z,10.36
2022-11-07T06:12:31.742Z,10.34
2022-11-07T06:14:37.162Z,10.25
2022-11-07T06:16:41.954Z,10.22
2022-11-07T06:18:49.847Z,10.18
2022-11-07T06:20:54.722Z,10.17
2022-11-07T06:23:00.840Z,10.19
2022-11-07T06:25:05.644Z,10.22
2022-11-07T06:27:10.423Z,10.24
2022-11-07T06:29:15.351Z,10.26
2022-11-07T06:31:20.161Z,10.26
2022-11-07T06:33:25.893Z,10.25
2022-11-07T06:35:34.031Z,10.24
2022-11-07T06:37:38.757Z,10.22
2022-11-07T06:39:43.557Z,10.11
2022-11-07T06:41:48.269Z,10.12
2022-11-07T06:43:53.448Z,10.09
2022-11-07T06:45:58.196Z,10.04
2022-11-07T06:48:02.976Z,10.02
2022-11-07T06:50:08.506Z,10.05
2022-11-07T06:52:16.955Z,10.07
2022-11-07T06:54:21.725Z,10.01
2022-11-07T06:56:27.615Z,10.00
2022-11-07T06:58:32.734Z,10.02
2022-11-07T07:00:38.828Z,10.05
2022-11-07T07:02:57.797Z,10.11
2022-11-07T07:05:03.017Z,10.16
2022-11-07T07:07:08.078Z,10.17
2022-11-07T07:09:15.295Z,10.10
2022-11-07T07:11:20.106Z,10.05
2022-11-07T07:13:24.934Z,10.01
2022-11-07T07:15:38.534Z,10.03
2022-11-07T07:17:52.548Z,10.05
2022-11-07T07:19:57.316Z,10.04
2022-11-07T07:22:02.531Z,10.06
2022-11-07T07:24:08.400Z,10.11
2022-11-07T07:26:17.728Z,10.11
2022-11-07T07:28:22.441Z,10.11
2022-11-07T07:30:27.194Z,10.10
2022-11-07T07:32:32.051Z,10.11
2022-11-07T07:34:36.892Z,10.14
2022-11-07T07:36:41.621Z,10.16
2022-11-07T07:38:46.496Z,10.17
2022-11-07T07:40:51.341Z,10.22
2022-11-07T07:42:58.742Z,10.19
2022-11-07T07:45:03.486Z,10.18
2022-11-07T07:47:11.284Z,10.18
2022-11-07T07:49:16.435Z,10.23
2022-11-07T07:51:21.590Z,10.25
2022-11-07T07:53:26.364Z,10.27
2022-11-07T07:55:31.151Z,10.29
2022-11-07T07:57:40.566Z,10.31
2022-11-07T07:59:48.018Z,10.34
2022-11-07T08:01:56.785Z,10.36
2022-11-07T08:04:02.934Z,10.36
2022-11-07T08:06:08.445Z,10.35
2022-11-07T08:08:12.971Z,10.34
2022-11-07T08:12:46.717Z,10.34
2022-11-07T08:14:54.118Z,10.35
2022-11-07T08:16:59.033Z,10.40
2022-11-07T08:19:03.846Z,10.43
2022-11-07T08:21:08.965Z,10.48
2022-11-07T08:23:16.747Z,10.50
2022-11-07T08:25:24.857Z,10.54
2022-11-07T08:27:29.589Z,10.56
2022-11-07T08:29:34.412Z,10.61
2022-11-07T08:31:41.919Z,10.70
2022-11-07T08:33:46.703Z,10.77
2022-11-07T08:35:51.552Z,10.86
2022-11-07T08:37:56.460Z,10.93
2022-11-07T08:40:01.224Z,11.05
2022-11-07T08:42:06.092Z,11.12
2022-11-07T08:44:12.112Z,11.22
2022-11-07T08:46:16.886Z,11.33
2022-11-07T08:48:25.145Z,11.51
2022-11-07T08:50:30.631Z,11.66
2022-11-07T08:52:36.833Z,11.81
2022-11-07T08:54:41.662Z,11.90
2022-11-07T08:56:46.443Z,11.98
2022-11-07T08:58:51.243Z,12.00
2022-11-07T09:00:56.039Z,12.03
2022-11-07T09:05:32.409Z,12.13
2022-11-07T09:07:39.992Z,12.16
2022-11-07T09:09:44.881Z,12.19
2022-11-07T09:11:49.714Z,12.23
2022-11-07T09:13:55.676Z,12.26
2022-11-07T09:16:00.990Z,12.24
2022-11-07T09:18:07.158Z,12.34
2022-11-07T09:20:14.134Z,12.38
2022-11-07T09:22:21.515Z,12.40
2022-11-07T09:24:26.283Z,12.46
2022-11-07T09:26:31.037Z,12.53
2022-11-07T09:28:36.519Z,12.59
2022-11-07T09:30:41.319Z,12.63
2022-11-07T09:32:46.490Z,12.71
2022-11-07T09:34:57.181Z,12.65
2022-11-07T09:37:05.441Z,12.62
2022-11-07T09:39:12.789Z,12.75
2022-11-07T09:41:31.782Z,12.84
2022-11-07T09:43:50.917Z,12.93
2022-11-07T09:46:05.362Z,13.04
2022-11-07T09:48:20.146Z,13.06
2022-11-07T09:50:32.329Z,13.19
2022-11-07T09:52:42.882Z,13.24
2022-11-07T09:54:55.256Z,13.33
2022-11-07T09:57:03.463Z,13.40
2022-11-07T09:59:14.283Z,13.42
2022-11-07T10:01:21.304Z,13.47
2022-11-07T10:03:26.232Z,13.54
2022-11-07T10:05:41.363Z,13.58
2022-11-07T10:07:56.242Z,13.72
2022-11-07T10:10:09.054Z,13.78
2022-11-07T10:12:24.251Z,13.85
2022-11-07T10:14:39.134Z,13.99
2022-11-07T10:16:54.329Z,13.94
2022-11-07T10:19:10.871Z,13.96
2022-11-07T10:21:41.257Z,14.08
2022-11-07T10:24:01.251Z,14.04
2022-11-07T10:26:11.956Z,13.98
2022-11-07T10:28:19.291Z,14.04
2022-11-07T10:30:24.521Z,13.96
2022-11-07T10:32:37.672Z,13.99
2022-11-07T10:34:51.606Z,13.99
2022-11-07T10:36:59.071Z,13.95
2022-11-07T10:39:04.731Z,14.04
2022-11-07T10:41:17.594Z,14.16
2022-11-07T10:43:33.021Z,14.22
2022-11-07T10:45:40.151Z,14.23
2022-11-07T10:47:45.020Z,14.31
2022-11-07T10:49:58.834Z,14.36
2022-11-07T10:52:11.412Z,14.42
2022-11-07T10:54:23.327Z,14.49
2022-11-07T10:56:30.929Z,14.49
2022-11-07T10:58:45.602Z,14.45
2022-11-07T11:01:01.116Z,14.57
2022-11-07T11:03:06.118Z,14.55
2022-11-07T11:05:25.666Z,14.71
2022-11-07T11:07:37.881Z,14.86
2022-11-07T11:09:53.185Z,14.94
2022-11-07T11:12:00.975Z,15.04
2022-11-07T11:14:08.279Z,15.08
2022-11-07T11:16:28.385Z,15.23
2022-11-07T11:18:33.268Z,15.35
2022-11-07T11:20:41.043Z,15.34
2022-11-07T11:22:45.900Z,15.34
2022-11-07T11:25:01.444Z,15.31
2022-11-07T11:27:16.292Z,15.21
2022-11-07T11:29:33.208Z,15.22
2022-11-07T11:31:45.776Z,15.20
2022-11-07T11:33:57.276Z,15.30
2022-11-07T11:36:06.868Z,15.33
2022-11-07T11:38:17.744Z,15.41
2022-11-07T11:40:25.286Z,15.47
2022-11-07T11:42:39.710Z,15.56
2022-11-07T11:44:46.737Z,15.64
2022-11-07T11:46:57.902Z,15.64
2022-11-07T11:49:08.626Z,15.70
2022-11-07T11:51:21.364Z,15.66
2022-11-07T11:53:31.038Z,15.64
2022-11-07T11:55:49.636Z,15.67
2022-11-07T11:58:08.468Z,15.68
2022-11-07T12:00:17.619Z,15.57
2022-11-07T12:02:47.488Z,15.58
2022-11-07T12:05:03.998Z,15.59
2022-11-07T12:07:26.382Z,15.68
2022-11-07T12:09:39.431Z,15.66
2022-11-07T12:11:54.540Z,15.70
2022-11-07T12:14:10.133Z,15.55
2022-11-07T12:16:25.854Z,15.51
2022-11-07T12:18:34.525Z,15.45
2022-11-07T12:20:48.571Z,15.53
2022-11-07T12:23:12.076Z,15.56
2022-11-07T12:25:24.570Z,15.57
2022-11-07T12:27:37.502Z,15.68
2022-11-07T12:30:03.292Z,15.56
2022-11-07T12:32:16.440Z,15.67
2022-11-07T12:34:32.497Z,15.70
2022-11-07T12:36:52.133Z,15.80
2022-11-07T12:39:18.568Z,15.91
2022-11-07T12:41:37.183Z,15.90
2022-11-07T12:43:53.172Z,15.80
2022-11-07T12:46:11.465Z,15.79
2022-11-07T12:48:46.607Z,15.79
2022-11-07T12:50:58.616Z,15.75
2022-11-07T12:53:16.674Z,15.80
2022-11-07T12:55:27.315Z,15.84
2022-11-07T12:57:35.059Z,15.82
2022-11-07T12:59:44.021Z,15.81
2022-11-07T13:01:55.373Z,15.85
2022-11-07T13:04:12.196Z,15.89
2022-11-07T13:06:22.522Z,15.79
2022-11-07T13:08:35.401Z,15.67
2022-11-07T13:10:51.439Z,15.67
2022-11-07T13:13:04.850Z,15.68
2022-11-07T13:15:14.357Z,15.55
2022-11-07T13:17:24.314Z,15.63
2022-11-07T13:19:33.424Z,15.72
2022-11-07T13:21:43.905Z,15.78
2022-11-07T13:23:49.207Z,15.75
2022-11-07T13:26:04.225Z,15.76
2022-11-07T13:28:39.357Z,15.57
2022-11-07T13:30:44.284Z,15.19
2022-11-07T13:32:53.703Z,15.04
2022-11-07T13:35:02.944Z,15.04
2022-11-07T13:37:08.266Z,14.93
2022-11-07T13:39:15.913Z,14.80
2022-11-07T13:41:22.465Z,14.67
2022-11-07T13:43:32.439Z,14.80
2022-11-07T13:45:45.987Z,14.73
2022-11-07T13:47:57.423Z,14.59
2022-11-07T13:50:11.124Z,14.52
2022-11-07T13:52:23.042Z,14.51
2022-11-07T13:54:33.998Z,14.45
2022-11-07T13:56:44.750Z,14.43
2022-11-07T13:58:52.464Z,14.45
2022-11-07T14:00:57.807Z,14.29
2022-11-07T14:03:05.839Z,14.14
2022-11-07T14:05:17.896Z,14.07
2022-11-07T14:07:26.593Z,14.12
2022-11-07T14:09:34.366Z,14.18
2022-11-07T14:11:40.125Z,14.08
2022-11-07T14:13:45.089Z,14.26
2022-11-07T14:15:53.234Z,14.32
2022-11-07T14:17:58.311Z,14.37
2022-11-07T14:20:18.512Z,14.41
2022-11-07T14:22:25.658Z,14.43
2022-11-07T14:24:32.765Z,14.49
2022-11-07T14:26:43.594Z,14.55
2022-11-07T14:28:48.730Z,14.66
2022-11-07T14:30:55.117Z,14.63
2022-11-07T14:33:02.223Z,14.69
2022-11-07T14:35:13.669Z,14.80
2022-11-07T14:37:21.121Z,14.83
2022-11-07T14:39:27.635Z,14.89
2022-11-07T14:41:33.111Z,14.95
2022-11-07T14:43:37.931Z,14.98
2022-11-07T14:46:14.119Z,14.99
2022-11-07T14:48:09.402Z,14.99
2022-11-07T14:50:21.729Z,15.01
2022-11-07T14:52:30.573Z,15.05
2022-11-07T14:54:39.624Z,15.09
2022-11-07T14:56:50.448Z,15.10
2022-11-07T14:58:55.840Z,15.08
2022-11-07T15:01:13.154Z,15.10
2022-11-07T15:03:24.365Z,15.11
2022-11-07T15:05:33.816Z,15.10
2022-11-07T15:07:49.372Z,15.09
2022-11-07T15:09:55.085Z,15.08
2022-11-07T15:12:01.626Z,15.04
2022-11-07T15:14:08.331Z,15.02
2022-11-07T15:16:19.433Z,14.96
2022-11-07T15:18:29.399Z,14.89
2022-11-07T15:20:41.756Z,14.83
2022-11-07T15:22:46.530Z,14.76
2022-11-07T15:24:51.270Z,14.71
2022-11-07T15:27:03.583Z,14.66
2022-11-07T15:29:17.767Z,14.60
2022-11-07T15:31:25.931Z,14.50
2022-11-07T15:33:33.821Z,14.45
2022-11-07T15:35:44.832Z,14.39
2022-11-07T15:37:57.663Z,14.34
2022-11-07T15:40:02.462Z,14.32
2022-11-07T15:42:07.613Z,14.25
2022-11-07T15:44:12.422Z,14.18
2022-11-07T15:46:26.283Z,14.11
2022-11-07T15:48:40.954Z,14.04
2022-11-07T15:50:50.259Z,14.00
2022-11-07T15:52:56.517Z,13.98
2022-11-07T15:55:01.262Z,13.97
2022-11-07T15:57:08.487Z,13.97
2022-11-07T15:59:20.417Z,13.98
2022-11-07T16:01:25.781Z,14.02
2022-11-07T16:03:30.947Z,14.05
2022-11-07T16:05:35.494Z,14.03
2022-11-07T16:07:44.185Z,14.04
2022-11-07T16:09:49.363Z,14.05
2022-11-07T16:11:53.842Z,14.03
2022-11-07T16:14:29.371Z,14.07
2022-11-07T16:16:27.030Z,14.09
2022-11-07T16:18:37.761Z,14.13
2022-11-07T16:20:42.637Z,14.13
2022-11-07T16:22:51.890Z,14.15
2022-11-07T16:24:56.669Z,14.15
2022-11-07T16:27:01.489Z,14.13
2022-11-07T16:29:06.406Z,14.14
2022-11-07T16:31:11.199Z,14.14
2022-11-07T16:33:15.965Z,14.13
2022-11-07T16:35:21.197Z,14.12
2022-11-07T16:37:25.712Z,14.08
2022-11-07T16:39:33.760Z,14.08
2022-11-07T16:41:40.032Z,14.07
2022-11-07T16:43:44.866Z,14.06
2022-11-07T16:45:53.015Z,14.03
2022-11-07T16:47:57.810Z,14.01
2022-11-07T16:50:02.601Z,13.99
2022-11-07T16:52:08.600Z,13.99
2022-11-07T16:54:13.721Z,14.00
2022-11-07T16:56:24.944Z,13.94
2022-11-07T16:58:31.752Z,13.92
2022-11-07T17:00:36.501Z,13.90
2022-11-07T17:02:41.297Z,13.87
2022-11-07T17:04:46.177Z,13.82
2022-11-07T17:06:51.179Z,13.82
2022-11-07T17:09:04.101Z,13.78
2022-11-07T17:11:15.461Z,13.74
2022-11-07T17:13:23.200Z,13.70
2022-11-07T17:15:28.247Z,13.62
2022-11-07T17:17:32.875Z,13.54
2022-11-07T17:19:38.020Z,13.50
2022-11-07T17:21:46.626Z,13.45
2022-11-07T17:23:51.705Z,13.45
2022-11-07T17:25:59.686Z,13.47
2022-11-07T17:28:04.470Z,13.51
2022-11-07T17:30:19.158Z,13.54
2022-11-07T17:32:23.959Z,13.53
2022-11-07T17:34:28.770Z,13.50
2022-11-07T17:36:38.011Z,13.48
2022-11-07T17:38:43.247Z,13.41
2022-11-07T17:40:48.160Z,13.37
2022-11-07T17:42:52.999Z,13.33
2022-11-07T17:44:57.823Z,13.28
2022-11-07T17:47:05.230Z,13.23
2022-11-07T17:49:11.025Z,13.20
2022-11-07T17:51:16.402Z,13.15
2022-11-07T17:53:21.166Z,13.12
2022-11-07T17:55:25.942Z,13.08
2022-11-07T17:57:30.904Z,13.03
2022-11-07T17:59:35.663Z,12.97
2022-11-07T18:01:41.794Z,12.88
2022-11-07T18:03:49.673Z,12.82
2022-11-07T18:05:54.471Z,12.79
2022-11-07T18:07:59.259Z,12.74
2022-11-07T18:10:04.168Z,12.70
2022-11-07T18:12:10.132Z,12.68
2022-11-07T18:14:16.435Z,12.64
2022-11-07T18:16:23.585Z,12.60
2022-11-07T18:18:28.403Z,12.57
2022-11-07T18:20:35.822Z,12.54
2022-11-07T18:22:40.917Z,12.52
2022-11-07T18:24:46.709Z,12.47
2022-11-07T18:26:52.799Z,12.41
2022-11-07T18:28:57.532Z,12.41
2022-11-07T18:31:07.015Z,12.44
2022-11-07T18:33:11.847Z,12.43
2022-11-07T18:35:16.606Z,12.43
2022-11-07T18:37:24.056Z,12.42
2022-11-07T18:39:28.905Z,12.44
2022-11-07T18:41:33.786Z,12.44
2022-11-07T18:43:39.333Z,12.47
2022-11-07T18:45:44.501Z,12.52
2022-11-07T18:47:48.984Z,12.53
2022-11-07T18:49:57.089Z,12.56
2022-11-07T18:52:02.221Z,12.58
2022-11-07T18:54:09.847Z,12.61
2022-11-07T18:56:15.706Z,12.63
2022-11-07T18:58:20.871Z,12.68
2022-11-07T19:00:25.854Z,12.69
2022-11-07T19:02:33.840Z,12.71
2022-11-07T19:04:38.638Z,12.72
2022-11-07T19:06:57.126Z,12.76
2022-11-07T19:09:02.531Z,12.81
2022-11-07T19:11:12.725Z,12.83
2022-11-07T19:13:17.476Z,12.85
2022-11-07T19:15:27.032Z,12.87
2022-11-07T19:17:31.840Z,12.88
2022-11-07T19:19:36.616Z,12.93
2022-11-07T19:21:43.740Z,12.95
2022-11-07T19:23:48.955Z,12.96
2022-11-07T19:25:54.208Z,12.97
2022-11-07T19:28:01.312Z,12.96
2022-11-07T19:30:06.853Z,12.95
2022-11-07T19:32:12.055Z,12.96
2022-11-07T19:34:18.206Z,12.92
2022-11-07T19:36:23.779Z,12.95
2022-11-07T19:38:28.617Z,12.97
2022-11-07T19:40:33.854Z,12.99
2022-11-07T19:42:38.411Z,12.95
2022-11-07T19:44:50.432Z,12.95
2022-11-07T19:46:57.653Z,12.94
2022-11-07T19:49:02.396Z,12.97
2022-11-07T19:51:08.330Z,12.98
2022-11-07T19:53:13.153Z,13.01
2022-11-07T19:55:17.982Z,13.01
2022-11-07T19:57:22.801Z,12.98
2022-11-07T19:59:27.980Z,12.98
2022-11-07T20:01:36.958Z,12.98
2022-11-07T20:03:42.093Z,12.98
2022-11-07T20:05:49.037Z,12.91
2022-11-07T20:07:57.035Z,12.90
2022-11-07T20:10:04.575Z,12.91
2022-11-07T20:12:09.278Z,12.85
2022-11-07T20:14:14.090Z,12.83
2022-11-07T20:16:19.283Z,12.84
2022-11-07T20:18:26.528Z,12.80
2022-11-07T20:20:31.281Z,12.76
2022-11-07T20:22:36.337Z,12.75
2022-11-07T20:24:41.236Z,12.75
2022-11-07T20:26:46.083Z,12.77
2022-11-07T20:28:51.786Z,12.78
2022-11-07T20:30:56.923Z,12.80
2022-11-07T20:33:01.698Z,12.82
2022-11-07T20:35:11.366Z,12.84
2022-11-07T20:37:20.931Z,12.82
2022-11-07T20:39:25.740Z,12.83
2022-11-07T20:41:30.860Z,12.81
2022-11-07T20:43:36.647Z,12.82
2022-11-07T20:45:41.362Z,12.78
2022-11-07T20:47:46.253Z,12.77
2022-11-07T20:49:51.035Z,12.74
2022-11-07T20:51:58.684Z,12.67
2022-11-07T20:54:03.579Z,12.60
2022-11-07T20:56:09.463Z,12.55
2022-11-07T20:58:14.560Z,12.48
2022-11-07T21:00:19.888Z,12.39
2022-11-07T21:02:24.739Z,12.31
2022-11-07T21:04:36.205Z,12.26
2022-11-07T21:06:49.385Z,12.24
2022-11-07T21:08:56.775Z,12.23
2022-11-07T21:11:01.551Z,12.24
2022-11-07T21:13:06.647Z,12.23
2022-11-07T21:15:13.837Z,12.18
2022-11-07T21:17:18.556Z,12.14
2022-11-07T21:19:23.580Z,12.07
2022-11-07T21:21:31.699Z,12.01
2022-11-07T21:23:36.520Z,11.94
2022-11-07T21:25:47.924Z,11.86
2022-11-07T21:27:52.671Z,11.80
2022-11-07T21:29:57.454Z,11.76
2022-11-07T21:32:02.636Z,11.72
2022-11-07T21:34:09.259Z,11.68
2022-11-07T21:36:15.631Z,11.65
2022-11-07T21:38:20.468Z,11.62
2022-11-07T21:40:25.333Z,11.59
2022-11-07T21:42:32.759Z,11.56
2022-11-07T21:44:37.603Z,11.53
2022-11-07T21:46:42.483Z,11.49
2022-11-07T21:48:48.533Z,11.46
2022-11-07T21:50:53.426Z,11.44
2022-11-07T21:52:58.180Z,11.41
2022-11-07T21:55:03.358Z,11.41
2022-11-07T21:57:08.194Z,11.37
2022-11-07T21:59:15.719Z,11.38
2022-11-07T22:01:22.186Z,11.36
2022-11-07T22:03:44.210Z,11.31
2022-11-07T22:05:51.731Z,11.26
2022-11-07T22:07:56.510Z,11.24
2022-11-07T22:10:01.277Z,11.22
2022-11-07T22:12:06.445Z,11.20
2022-11-07T22:14:12.398Z,11.18
2022-11-07T22:16:21.970Z,11.14
2022-11-07T22:18:26.741Z,11.08
2022-11-07T22:20:31.549Z,11.05
2022-11-07T22:22:36.883Z,11.01
2022-11-07T22:24:41.783Z,10.99
2022-11-07T22:26:46.672Z,10.95
2022-11-07T22:28:52.327Z,10.91
2022-11-07T22:30:57.073Z,10.89
2022-11-07T22:33:04.501Z,10.87
2022-11-07T22:35:09.612Z,10.85
2022-11-07T22:37:14.379Z,10.83
2022-11-07T22:39:19.304Z,10.80
2022-11-07T22:41:25.613Z,10.77
2022-11-07T22:43:31.117Z,10.76
2022-11-07T22:45:39.767Z,10.77
2022-11-07T22:47:44.495Z,10.76
2022-11-07T22:49:51.872Z,10.74
2022-11-07T22:51:56.676Z,10.72
2022-11-07T22:54:02.280Z,10.68
2022-11-07T22:56:11.262Z,10.68
2022-11-07T22:58:16.450Z,10.65
2022-11-07T23:00:22.255Z,10.64
2022-11-07T23:02:27.195Z,10.63
2022-11-07T23:04:33.137Z,10.62
2022-11-07T23:06:40.610Z,10.62
2022-11-07T23:08:45.728Z,10.60
2022-11-07T23:11:32.536Z,10.56
2022-11-07T23:13:25.605Z,10.50
2022-11-07T23:15:30.386Z,10.46
2022-11-07T23:17:35.149Z,10.45
2022-11-07T23:19:39.882Z,10.43
2022-11-07T23:21:47.627Z,10.43
2022-11-07T23:23:56.102Z,10.45
2022-11-07T23:26:03.393Z,10.44
2022-11-07T23:28:08.394Z,10.44
2022-11-07T23:30:14.149Z,10.43
2022-11-07T23:32:19.245Z,10.39
2022-11-07T23:34:25.998Z,10.35
2022-11-07T23:36:30.772Z,10.31
2022-11-07T23:38:38.155Z,10.28
2022-11-07T23:40:42.931Z,10.25
2022-11-07T23:42:47.681Z,10.19
2022-11-07T23:45:04.942Z,10.19
2022-11-07T23:47:38.261Z,10.19
2022-11-07T23:49:55.450Z,10.17
2022-11-07T23:52:00.213Z,10.17
2022-11-07T23:54:20.096Z,10.16
2022-11-07T23:56:27.026Z,10.11
2022-11-07T23:58:44.250Z,10.12
